sensor_id;sensor_type;location;lat;lon;timestamp;temperature;humidity
67165;SHT31;54093;50.014;19.984;2023-05-21T00:05:55;15.14;77.85
67165;SHT31;54093;50.014;19.984;2023-05-21T00:15:16;15.11;78.42
67165;SHT31;54093;50.014;19.984;2023-05-21T00:24:37;15.12;78.67
67165;SHT31;54093;50.014;19.984;2023-05-21T00:33:58;15.12;78.99
67165;SHT31;54093;50.014;19.984;2023-05-21T00:43:19;15.08;79.38
67165;SHT31;54093;50.014;19.984;2023-05-21T00:52:41;15.01;79.89
67165;SHT31;54093;50.014;19.984;2023-05-21T01:02:03;14.98;80.31
67165;SHT31;54093;50.014;19.984;2023-05-21T01:11:39;14.95;80.53
67165;SHT31;54093;50.014;19.984;2023-05-21T01:21:01;14.94;80.40
67165;SHT31;54093;50.014;19.984;2023-05-21T01:30:22;14.98;80.44
67165;SHT31;54093;50.014;19.984;2023-05-21T01:39:51;14.92;81.25
67165;SHT31;54093;50.014;19.984;2023-05-21T01:49:14;14.88;81.77
67165;SHT31;54093;50.014;19.984;2023-05-21T01:58:36;14.90;81.89
67165;SHT31;54093;50.014;19.984;2023-05-21T02:07:57;14.91;81.75
67165;SHT31;54093;50.014;19.984;2023-05-21T02:17:19;14.85;82.01
67165;SHT31;54093;50.014;19.984;2023-05-21T02:26:41;14.81;82.20
67165;SHT31;54093;50.014;19.984;2023-05-21T02:36:03;14.76;82.07
67165;SHT31;54093;50.014;19.984;2023-05-21T02:45:24;14.67;82.10
67165;SHT31;54093;50.014;19.984;2023-05-21T02:54:45;14.61;82.03
67165;SHT31;54093;50.014;19.984;2023-05-21T03:04:06;14.57;81.96
67165;SHT31;54093;50.014;19.984;2023-05-21T03:13:27;14.55;81.98
67165;SHT31;54093;50.014;19.984;2023-05-21T03:22:48;14.47;82.10
67165;SHT31;54093;50.014;19.984;2023-05-21T03:32:09;14.40;82.35
67165;SHT31;54093;50.014;19.984;2023-05-21T03:41:30;14.33;82.79
67165;SHT31;54093;50.014;19.984;2023-05-21T03:50:51;14.34;82.70
67165;SHT31;54093;50.014;19.984;2023-05-21T04:00:12;14.32;82.98
67165;SHT31;54093;50.014;19.984;2023-05-21T04:09:33;14.29;83.45
67165;SHT31;54093;50.014;19.984;2023-05-21T04:18:54;14.39;83.21
67165;SHT31;54093;50.014;19.984;2023-05-21T04:28:15;14.42;83.44
67165;SHT31;54093;50.014;19.984;2023-05-21T04:37:40;14.47;83.33
67165;SHT31;54093;50.014;19.984;2023-05-21T04:47:05;14.51;83.01
67165;SHT31;54093;50.014;19.984;2023-05-21T04:56:27;14.61;83.02
67165;SHT31;54093;50.014;19.984;2023-05-21T05:05:49;14.76;82.03
67165;SHT31;54093;50.014;19.984;2023-05-21T05:15:11;14.88;80.58
67165;SHT31;54093;50.014;19.984;2023-05-21T05:24:32;15.00;80.03
67165;SHT31;54093;50.014;19.984;2023-05-21T05:33:54;15.29;79.03
67165;SHT31;54093;50.014;19.984;2023-05-21T05:43:14;15.62;78.76
67165;SHT31;54093;50.014;19.984;2023-05-21T05:52:36;16.13;77.03
67165;SHT31;54093;50.014;19.984;2023-05-21T06:01:56;16.68;75.00
67165;SHT31;54093;50.014;19.984;2023-05-21T06:11:17;17.30;74.32
67165;SHT31;54093;50.014;19.984;2023-05-21T06:20:38;17.89;72.80
67165;SHT31;54093;50.014;19.984;2023-05-21T06:29:59;18.64;71.69
67165;SHT31;54093;50.014;19.984;2023-05-21T06:39:20;19.25;69.09
67165;SHT31;54093;50.014;19.984;2023-05-21T06:48:42;20.08;68.29
67165;SHT31;54093;50.014;19.984;2023-05-21T06:58:03;20.94;64.73
67165;SHT31;54093;50.014;19.984;2023-05-21T07:07:24;21.61;62.84
67165;SHT31;54093;50.014;19.984;2023-05-21T07:16:45;21.82;59.61
67165;SHT31;54093;50.014;19.984;2023-05-21T07:26:08;22.47;58.47
67165;SHT31;54093;50.014;19.984;2023-05-21T07:35:29;23.08;57.02
67165;SHT31;54093;50.014;19.984;2023-05-21T07:44:50;23.67;55.10
67165;SHT31;54093;50.014;19.984;2023-05-21T07:54:11;24.46;51.87
67165;SHT31;54093;50.014;19.984;2023-05-21T08:03:32;24.93;51.66
67165;SHT31;54093;50.014;19.984;2023-05-21T08:12:53;25.20;50.98
67165;SHT31;54093;50.014;19.984;2023-05-21T08:22:13;25.63;47.97
67165;SHT31;54093;50.014;19.984;2023-05-21T08:31:34;26.03;47.79
67165;SHT31;54093;50.014;19.984;2023-05-21T08:40:56;26.37;46.88
67165;SHT31;54093;50.014;19.984;2023-05-21T08:50:18;26.96;46.50
67165;SHT31;54093;50.014;19.984;2023-05-21T08:59:39;27.16;50.48
67165;SHT31;54093;50.014;19.984;2023-05-21T09:09:11;27.61;47.92
67165;SHT31;54093;50.014;19.984;2023-05-21T09:18:34;27.63;48.15
67165;SHT31;54093;50.014;19.984;2023-05-21T09:27:55;27.68;47.45
67165;SHT31;54093;50.014;19.984;2023-05-21T09:37:16;27.98;47.43
67165;SHT31;54093;50.014;19.984;2023-05-21T09:46:38;28.22;46.04
67165;SHT31;54093;50.014;19.984;2023-05-21T09:56:00;28.18;44.71
67165;SHT31;54093;50.014;19.984;2023-05-21T10:05:24;28.29;46.22
67165;SHT31;54093;50.014;19.984;2023-05-21T10:14:49;28.28;46.54
67165;SHT31;54093;50.014;19.984;2023-05-21T10:24:12;28.48;44.80
67165;SHT31;54093;50.014;19.984;2023-05-21T10:33:34;28.46;43.75
67165;SHT31;54093;50.014;19.984;2023-05-21T11:02:16;28.64;44.47
67165;SHT31;54093;50.014;19.984;2023-05-21T11:21:14;28.73;43.71
67165;SHT31;54093;50.014;19.984;2023-05-21T11:30:34;28.50;43.83
67165;SHT31;54093;50.014;19.984;2023-05-21T11:39:57;28.59;41.60
67165;SHT31;54093;50.014;19.984;2023-05-21T11:49:20;28.45;39.52
67165;SHT31;54093;50.014;19.984;2023-05-21T11:58:41;28.39;40.42
67165;SHT31;54093;50.014;19.984;2023-05-21T12:08:05;28.32;41.03
67165;SHT31;54093;50.014;19.984;2023-05-21T12:17:25;28.32;40.61
67165;SHT31;54093;50.014;19.984;2023-05-21T12:26:47;28.05;40.58
67165;SHT31;54093;50.014;19.984;2023-05-21T12:36:10;27.98;40.87
67165;SHT31;54093;50.014;19.984;2023-05-21T12:45:41;27.91;41.36
67165;SHT31;54093;50.014;19.984;2023-05-21T12:55:03;27.53;40.95
67165;SHT31;54093;50.014;19.984;2023-05-21T13:04:24;27.43;40.81
67165;SHT31;54093;50.014;19.984;2023-05-21T13:13:45;27.42;40.48
67165;SHT31;54093;50.014;19.984;2023-05-21T13:23:06;27.22;41.67
67165;SHT31;54093;50.014;19.984;2023-05-21T13:32:26;27.20;39.22
67165;SHT31;54093;50.014;19.984;2023-05-21T13:41:47;27.20;40.25
67165;SHT31;54093;50.014;19.984;2023-05-21T13:51:08;26.95;39.22
67165;SHT31;54093;50.014;19.984;2023-05-21T14:00:29;26.94;39.30
67165;SHT31;54093;50.014;19.984;2023-05-21T14:09:50;26.69;41.16
67165;SHT31;54093;50.014;19.984;2023-05-21T14:19:12;26.74;39.25
67165;SHT31;54093;50.014;19.984;2023-05-21T14:28:33;26.54;40.91
67165;SHT31;54093;50.014;19.984;2023-05-21T14:37:55;26.33;40.49
67165;SHT31;54093;50.014;19.984;2023-05-21T14:47:16;26.09;39.31
67165;SHT31;54093;50.014;19.984;2023-05-21T14:56:37;25.69;40.34
67165;SHT31;54093;50.014;19.984;2023-05-21T15:05:58;25.51;39.79
67165;SHT31;54093;50.014;19.984;2023-05-21T15:15:20;25.25;41.35
67165;SHT31;54093;50.014;19.984;2023-05-21T15:24:41;25.07;40.09
67165;SHT31;54093;50.014;19.984;2023-05-21T15:34:02;24.73;41.20
67165;SHT31;54093;50.014;19.984;2023-05-21T15:43:23;24.56;43.21
67165;SHT31;54093;50.014;19.984;2023-05-21T15:52:44;24.49;43.05
67165;SHT31;54093;50.014;19.984;2023-05-21T16:02:06;24.22;44.02
67165;SHT31;54093;50.014;19.984;2023-05-21T16:11:27;23.96;44.78
67165;SHT31;54093;50.014;19.984;2023-05-21T16:20:48;23.67;46.07
67165;SHT31;54093;50.014;19.984;2023-05-21T16:30:09;23.50;47.44
67165;SHT31;54093;50.014;19.984;2023-05-21T16:39:30;23.29;48.60
67165;SHT31;54093;50.014;19.984;2023-05-21T16:48:51;23.08;47.97
67165;SHT31;54093;50.014;19.984;2023-05-21T16:58:12;22.84;47.91
67165;SHT31;54093;50.014;19.984;2023-05-21T17:07:33;22.63;48.71
67165;SHT31;54093;50.014;19.984;2023-05-21T17:16:54;22.41;49.94
67165;SHT31;54093;50.014;19.984;2023-05-21T17:26:16;22.17;50.19
67165;SHT31;54093;50.014;19.984;2023-05-21T17:35:36;21.89;50.61
67165;SHT31;54093;50.014;19.984;2023-05-21T17:44:57;21.68;51.12
67165;SHT31;54093;50.014;19.984;2023-05-21T17:54:18;21.47;52.13
67165;SHT31;54093;50.014;19.984;2023-05-21T18:03:40;21.32;53.16
67165;SHT31;54093;50.014;19.984;2023-05-21T18:13:01;21.12;52.73
67165;SHT31;54093;50.014;19.984;2023-05-21T18:22:22;20.90;54.13
67165;SHT31;54093;50.014;19.984;2023-05-21T18:31:44;20.68;55.27
67165;SHT31;54093;50.014;19.984;2023-05-21T18:41:05;20.41;55.80
67165;SHT31;54093;50.014;19.984;2023-05-21T18:50:27;20.20;56.94
67165;SHT31;54093;50.014;19.984;2023-05-21T18:59:49;19.98;57.50
67165;SHT31;54093;50.014;19.984;2023-05-21T19:09:10;19.77;58.73
67165;SHT31;54093;50.014;19.984;2023-05-21T19:18:33;19.56;59.95
67165;SHT31;54093;50.014;19.984;2023-05-21T19:27:55;19.42;61.28
67165;SHT31;54093;50.014;19.984;2023-05-21T19:37:16;19.33;60.78
67165;SHT31;54093;50.014;19.984;2023-05-21T19:46:37;19.11;61.67
67165;SHT31;54093;50.014;19.984;2023-05-21T19:55:58;18.95;62.10
67165;SHT31;54093;50.014;19.984;2023-05-21T20:05:19;18.74;63.06
67165;SHT31;54093;50.014;19.984;2023-05-21T20:14:41;18.51;63.06
67165;SHT31;54093;50.014;19.984;2023-05-21T20:24:02;18.47;64.24
67165;SHT31;54093;50.014;19.984;2023-05-21T20:33:23;18.34;64.83
67165;SHT31;54093;50.014;19.984;2023-05-21T20:42:47;18.03;65.10
67165;SHT31;54093;50.014;19.984;2023-05-21T20:52:10;17.62;65.11
67165;SHT31;54093;50.014;19.984;2023-05-21T21:01:31;17.44;66.55
67165;SHT31;54093;50.014;19.984;2023-05-21T21:10:52;17.28;65.97
67165;SHT31;54093;50.014;19.984;2023-05-21T21:20:13;17.14;65.56
67165;SHT31;54093;50.014;19.984;2023-05-21T21:29:37;16.99;65.70
67165;SHT31;54093;50.014;19.984;2023-05-21T21:38:57;16.96;66.58
67165;SHT31;54093;50.014;19.984;2023-05-21T21:48:18;16.80;66.68
67165;SHT31;54093;50.014;19.984;2023-05-21T21:57:39;16.75;66.88
67165;SHT31;54093;50.014;19.984;2023-05-21T22:07:00;16.55;66.84
67165;SHT31;54093;50.014;19.984;2023-05-21T22:16:21;16.36;67.51
67165;SHT31;54093;50.014;19.984;2023-05-21T22:25:45;16.08;67.33
67165;SHT31;54093;50.014;19.984;2023-05-21T22:35:06;15.86;67.52
67165;SHT31;54093;50.014;19.984;2023-05-21T22:44:27;15.62;68.87
67165;SHT31;54093;50.014;19.984;2023-05-21T22:53:48;15.39;69.15
67165;SHT31;54093;50.014;19.984;2023-05-21T23:03:09;15.14;69.28
67165;SHT31;54093;50.014;19.984;2023-05-21T23:12:30;15.08;70.34
67165;SHT31;54093;50.014;19.984;2023-05-21T23:21:51;14.84;68.76
67165;SHT31;54093;50.014;19.984;2023-05-21T23:31:12;14.46;69.15
67165;SHT31;54093;50.014;19.984;2023-05-21T23:40:33;14.34;69.52
67165;SHT31;54093;50.014;19.984;2023-05-21T23:49:54;14.09;69.84
67165;SHT31;54093;50.014;19.984;2023-05-21T23:59:15;13.86;69.18
